Von / Nach
Hinflug - Rückflug
Erwachsene / Kinder
Promocode
Nächste Ankünfte Flughafen St.Gallen-Altenrhein

Zur Zeit stehen leider keine aktuellen Fluginformationen zur Verfügung.
Nächste Abflüge Flughafen St.Gallen-Altenrhein

Zur Zeit stehen leider keine aktuellen Fluginformationen zur Verfügung.

Flugplan

Bitte wählen Sie Ihren gewünschten Abflug- und Zielflughafen aus.


Live aus Altenrhein
LIVE
LSZR 131950Z AUTO VRB03KT CAVOK 18/12 Q1017
Zeitraffer heute
Zeitraffer gestern

  

 

Teile dein People's-Erlebnis mit uns:

 

#peoplesairline bei Instagram